Time;durP1;ratioP1;P1;durP2;ratioP2;P2;SDS_P1;SDS_P2;PMS_P1;PMS_P2;Temp;Humidity;BMP_temperature;BMP_pressure;BME280_temperature;BME280_humidity;BME280_pressure;Samples;Min_cycle;Max_cycle;Signal;HPM_P1;HPM_P2
2023/11/14 00:00:48;;;;;;;28.83;6.25;;;11.60;99.90;;;;;;4999500;28;20060;-82
2023/11/14 00:03:14;;;;;;;31.60;7.32;;;11.60;99.90;;;;;;4994488;28;20046;-84
2023/11/14 00:05:40;;;;;;;34.63;7.35;;;11.50;99.90;;;;;;4993242;28;20091;-85
2023/11/14 00:08:06;;;;;;;31.40;6.97;;;11.50;99.90;;;;;;4993926;28;20419;-85
2023/11/14 00:10:31;;;;;;;27.00;6.50;;;11.60;99.90;;;;;;5006692;28;20736;-84
2023/11/14 00:12:57;;;;;;;30.48;7.03;;;11.50;99.90;;;;;;4991659;28;20050;-84
2023/11/14 00:15:24;;;;;;;27.52;6.97;;;11.60;99.90;;;;;;4998790;28;20846;-82
2023/11/14 00:17:50;;;;;;;34.22;7.00;;;11.60;99.90;;;;;;5007163;28;20110;-83
2023/11/14 00:20:16;;;;;;;30.73;7.30;;;11.70;99.90;;;;;;4978907;28;20447;-83
2023/11/14 00:22:42;;;;;;;34.95;7.32;;;11.70;99.90;;;;;;5006596;28;20057;-85
2023/11/14 00:25:08;;;;;;;31.30;7.72;;;11.70;99.90;;;;;;4991031;28;20037;-82
2023/11/14 00:27:34;;;;;;;26.83;6.82;;;11.70;99.90;;;;;;4993581;28;20128;-86
2023/11/14 00:30:00;;;;;;;24.95;6.03;;;11.70;99.90;;;;;;4992677;28;20124;-84
2023/11/14 00:32:25;;;;;;;34.40;7.45;;;11.70;99.90;;;;;;5016595;28;20136;-85
2023/11/14 00:34:51;;;;;;;31.10;7.60;;;11.70;99.90;;;;;;5000127;28;20045;-83
2023/11/14 00:37:17;;;;;;;27.73;6.78;;;11.70;99.90;;;;;;4999532;28;20045;-85
2023/11/14 00:39:43;;;;;;;30.00;6.78;;;11.70;99.90;;;;;;4995277;28;20094;-84
2023/11/14 00:42:10;;;;;;;32.38;7.65;;;11.70;99.90;;;;;;5008054;28;20053;-85
2023/11/14 00:44:35;;;;;;;26.60;7.45;;;11.80;99.90;;;;;;5010967;28;20450;-86
2023/11/14 00:47:01;;;;;;;33.05;6.70;;;11.80;99.90;;;;;;5010582;28;20041;-81
2023/11/14 00:49:27;;;;;;;37.17;7.53;;;11.80;99.90;;;;;;4992274;28;20133;-84
2023/11/14 00:51:57;;;;;;;31.52;7.97;;;11.80;99.90;;;;;;5011394;28;20405;-85
2023/11/14 00:54:24;;;;;;;31.85;6.80;;;11.90;99.90;;;;;;4994408;28;20065;-85
2023/11/14 00:56:50;;;;;;;24.50;6.40;;;11.80;99.90;;;;;;4995234;28;20053;-86
2023/11/14 00:59:16;;;;;;;27.80;7.38;;;11.80;99.90;;;;;;5011426;28;20499;-85
2023/11/14 01:01:42;;;;;;;28.70;6.78;;;11.80;99.90;;;;;;4995746;28;20102;-84
2023/11/14 01:04:10;;;;;;;32.17;7.28;;;11.80;99.90;;;;;;4997931;28;20046;-83
2023/11/14 01:06:36;;;;;;;30.63;8.43;;;11.70;99.90;;;;;;5015529;28;20120;-84
2023/11/14 01:09:02;;;;;;;28.02;6.70;;;11.70;99.90;;;;;;5009445;28;20120;-85
2023/11/14 01:11:28;;;;;;;30.55;6.63;;;11.60;99.90;;;;;;5009429;28;20076;-83
2023/11/14 01:13:54;;;;;;;31.90;6.90;;;11.60;99.90;;;;;;4993863;28;20056;-81
2023/11/14 01:16:23;;;;;;;33.25;7.90;;;11.60;99.90;;;;;;5012595;28;20452;-81
2023/11/14 01:18:52;;;;;;;34.42;7.20;;;11.50;99.90;;;;;;5008951;28;20077;-83
2023/11/14 01:21:18;;;;;;;32.45;6.85;;;11.50;99.90;;;;;;5008086;28;20041;-82
2023/11/14 01:23:44;;;;;;;28.50;7.10;;;11.50;99.90;;;;;;4994547;28;20408;-84
2023/11/14 01:26:10;;;;;;;38.53;7.43;;;11.50;99.90;;;;;;5011376;28;20043;-83
2023/11/14 01:28:35;;;;;;;31.92;7.50;;;11.50;99.90;;;;;;4991333;28;20037;-82
2023/11/14 01:31:01;;;;;;;36.90;8.35;;;11.50;99.90;;;;;;4994950;28;20049;-84
2023/11/14 01:33:27;;;;;;;27.58;6.78;;;11.40;99.90;;;;;;5008237;28;20042;-83
2023/11/14 01:35:53;;;;;;;30.85;7.03;;;11.40;99.90;;;;;;4992159;28;20091;-84
2023/11/14 01:38:19;;;;;;;34.08;6.93;;;11.40;99.90;;;;;;4994432;28;20033;-82
2023/11/14 01:40:50;;;;;;;32.80;7.20;;;11.30;99.90;;;;;;5011618;28;20057;-83
2023/11/14 01:43:16;;;;;;;31.08;6.78;;;11.30;99.90;;;;;;5008295;28;20049;-82
2023/11/14 01:45:45;;;;;;;33.22;7.47;;;11.40;99.90;;;;;;5002599;28;20503;-85
2023/11/14 01:48:12;;;;;;;36.83;7.43;;;11.30;99.90;;;;;;5011966;28;20132;-82
2023/11/14 01:50:38;;;;;;;34.78;7.90;;;11.30;99.90;;;;;;4994194;28;20038;-83
2023/11/14 01:53:07;;;;;;;41.00;7.95;;;11.20;99.90;;;;;;5000638;28;20095;-82
2023/11/14 01:55:34;;;;;;;39.03;8.32;;;11.20;99.90;;;;;;5012093;28;20411;-84
2023/11/14 01:58:01;;;;;;;36.70;7.95;;;11.20;99.90;;;;;;4983056;28;20052;-82
2023/11/14 02:00:27;;;;;;;30.17;7.03;;;11.20;99.90;;;;;;4995207;28;20042;-83
2023/11/14 02:02:54;;;;;;;33.45;7.38;;;11.20;99.90;;;;;;5014902;28;20037;-84
2023/11/14 02:05:23;;;;;;;32.17;7.03;;;11.10;99.90;;;;;;4996165;28;20159;-81
2023/11/14 02:07:49;;;;;;;41.50;7.82;;;11.10;99.90;;;;;;4989591;28;20136;-82
2023/11/14 02:10:14;;;;;;;32.08;7.18;;;11.10;99.90;;;;;;4996001;28;20498;-83
2023/11/14 02:12:40;;;;;;;35.65;7.60;;;11.10;99.90;;;;;;5005151;28;20533;-83
2023/11/14 02:15:07;;;;;;;36.17;7.47;;;11.10;99.90;;;;;;4994526;28;20068;-83
2023/11/14 02:17:32;;;;;;;35.88;7.25;;;11.10;99.90;;;;;;4992356;28;20110;-82
2023/11/14 02:19:59;;;;;;;38.17;7.95;;;11.10;99.90;;;;;;5008355;28;20536;-82
2023/11/14 02:22:25;;;;;;;33.35;7.20;;;11.00;99.90;;;;;;4990765;28;20538;-84
2023/11/14 02:24:53;;;;;;;30.98;7.00;;;11.00;99.90;;;;;;5008969;28;20141;-82
2023/11/14 02:27:25;;;;;;;32.05;7.10;;;11.00;99.90;;;;;;4995984;28;20092;-84
2023/11/14 02:29:55;;;;;;;29.38;7.35;;;11.10;99.90;;;;;;4995524;28;20400;-83
2023/11/14 02:32:21;;;;;;;28.25;6.63;;;11.10;99.90;;;;;;5011776;28;20466;-81
2023/11/14 02:34:47;;;;;;;32.67;6.80;;;11.10;99.90;;;;;;5003308;28;20073;-83
2023/11/14 02:37:16;;;;;;;35.53;7.25;;;11.10;99.90;;;;;;4993941;28;20527;-82
2023/11/14 02:39:41;;;;;;;29.80;7.15;;;11.10;99.90;;;;;;5001916;28;20489;-83
2023/11/14 02:42:07;;;;;;;34.63;6.47;;;11.00;99.90;;;;;;4990102;28;20051;-82
2023/11/14 02:44:33;;;;;;;37.38;8.10;;;11.00;99.90;;;;;;4997185;28;20045;-82
2023/11/14 02:46:59;;;;;;;34.78;7.68;;;11.00;99.90;;;;;;5011593;28;20139;-83
2023/11/14 02:49:37;;;;;;;33.40;7.20;;;11.00;99.90;;;;;;4994807;28;20065;-83
2023/11/14 02:52:03;;;;;;;28.95;6.88;;;11.00;99.90;;;;;;5010869;28;20053;-82
2023/11/14 02:54:29;;;;;;;36.95;6.45;;;11.00;99.90;;;;;;4989741;28;20049;-84
2023/11/14 02:56:55;;;;;;;35.58;7.63;;;11.00;99.90;;;;;;5005158;28;20041;-82
2023/11/14 02:59:21;;;;;;;28.63;7.55;;;11.00;99.90;;;;;;4994630;28;20041;-82
2023/11/14 03:01:47;;;;;;;30.13;7.15;;;11.00;99.90;;;;;;4988820;28;20041;-84
2023/11/14 03:04:13;;;;;;;31.48;7.75;;;11.00;99.90;;;;;;4990275;28;20049;-81
2023/11/14 03:06:41;;;;;;;32.28;8.57;;;11.00;99.90;;;;;;4990919;28;20041;-81
2023/11/14 03:09:07;;;;;;;33.05;7.22;;;11.10;99.90;;;;;;5010220;28;20038;-83
2023/11/14 03:11:33;;;;;;;31.17;7.07;;;11.10;99.90;;;;;;5006764;28;20029;-83
2023/11/14 03:14:00;;;;;;;29.13;7.70;;;11.10;99.90;;;;;;4995947;28;20467;-82
2023/11/14 03:16:36;;;;;;;35.40;8.20;;;11.10;99.90;;;;;;4996322;28;20041;-82
2023/11/14 03:19:06;;;;;;;33.30;7.93;;;11.10;99.90;;;;;;4979587;28;20503;-81
2023/11/14 03:21:40;;;;;;;40.47;8.43;;;11.10;99.90;;;;;;4989991;28;20114;-83
2023/11/14 03:24:06;;;;;;;28.80;6.43;;;11.20;99.90;;;;;;4994344;28;20041;-82
2023/11/14 03:26:32;;;;;;;35.38;6.80;;;11.20;99.90;;;;;;5002806;28;20053;-81
2023/11/14 03:28:58;;;;;;;31.05;7.18;;;11.20;99.90;;;;;;5006340;28;20381;-82
2023/11/14 03:31:24;;;;;;;32.63;7.65;;;11.20;99.90;;;;;;5007567;28;20136;-82
2023/11/14 03:33:50;;;;;;;38.20;8.02;;;11.20;99.90;;;;;;5002138;28;20053;-80
2023/11/14 03:36:15;;;;;;;38.40;7.75;;;11.10;99.90;;;;;;5004721;28;20116;-79
2023/11/14 03:38:42;;;;;;;39.03;7.53;;;11.20;99.90;;;;;;4994595;28;20176;-81
2023/11/14 03:41:07;;;;;;;37.95;8.48;;;11.20;99.90;;;;;;5001914;28;20049;-81
2023/11/14 03:43:34;;;;;;;33.53;8.00;;;11.20;99.90;;;;;;5005289;28;20566;-81
2023/11/14 03:46:01;;;;;;;37.67;7.57;;;11.20;99.90;;;;;;5008159;28;20076;-80
2023/11/14 03:48:26;;;;;;;36.80;7.93;;;11.10;99.90;;;;;;4990669;28;20051;-81
2023/11/14 03:50:52;;;;;;;31.95;7.25;;;11.10;99.90;;;;;;5004615;28;20049;-81
2023/11/14 03:53:18;;;;;;;36.03;7.70;;;11.10;99.90;;;;;;5004975;28;20037;-82
2023/11/14 03:55:44;;;;;;;43.90;10.13;;;11.10;99.90;;;;;;5018618;28;20037;-82
2023/11/14 03:58:10;;;;;;;32.63;7.20;;;11.10;99.90;;;;;;5012347;28;20041;-81
2023/11/14 04:00:36;;;;;;;42.55;8.77;;;11.10;99.90;;;;;;4995209;28;20045;-80
2023/11/14 04:03:03;;;;;;;39.58;7.55;;;11.10;99.90;;;;;;4985516;28;20053;-79
2023/11/14 04:05:28;;;;;;;38.17;7.97;;;11.10;99.90;;;;;;5005061;28;20407;-80
2023/11/14 04:07:55;;;;;;;42.90;8.55;;;11.10;99.90;;;;;;5013336;28;20183;-79
2023/11/14 04:10:24;;;;;;;37.25;7.80;;;11.10;99.90;;;;;;4999443;28;20095;-79
2023/11/14 04:12:49;;;;;;;40.10;7.28;;;11.00;99.90;;;;;;4984680;28;20132;-80
2023/11/14 04:15:15;;;;;;;42.17;7.95;;;11.00;99.90;;;;;;4990670;28;20151;-79
2023/11/14 04:17:41;;;;;;;36.72;7.95;;;11.00;99.90;;;;;;4987879;28;20030;-79
2023/11/14 04:20:07;;;;;;;37.53;8.30;;;11.00;99.90;;;;;;5003934;28;20073;-78
2023/11/14 04:22:33;;;;;;;42.30;7.53;;;11.10;99.90;;;;;;4989938;28;20050;-79
2023/11/14 04:24:59;;;;;;;41.13;8.82;;;11.00;99.90;;;;;;4988254;28;20046;-78
2023/11/14 04:27:25;;;;;;;41.17;8.23;;;11.00;99.90;;;;;;5007502;28;20067;-79
2023/11/14 04:29:51;;;;;;;46.83;9.07;;;11.00;99.90;;;;;;5002824;28;20128;-79
2023/11/14 04:32:16;;;;;;;43.65;8.35;;;11.00;99.90;;;;;;4992452;28;20159;-78
2023/11/14 04:34:45;;;;;;;42.30;8.82;;;11.00;99.90;;;;;;4995735;28;20067;-79
2023/11/14 04:37:11;;;;;;;41.20;8.95;;;11.00;99.90;;;;;;5009687;28;20050;-79
2023/11/14 04:39:37;;;;;;;41.22;7.82;;;11.00;99.90;;;;;;5003222;28;20071;-78
2023/11/14 04:42:05;;;;;;;45.30;8.40;;;11.00;99.90;;;;;;5002572;28;20045;-78
2023/11/14 04:44:31;;;;;;;35.10;8.10;;;11.00;99.90;;;;;;4992894;28;20041;-77
2023/11/14 04:46:58;;;;;;;38.95;7.85;;;11.00;99.90;;;;;;5002095;28;20045;-79
2023/11/14 04:49:27;;;;;;;40.58;7.78;;;11.00;99.90;;;;;;5001703;28;20049;-80
2023/11/14 04:51:53;;;;;;;37.92;7.38;;;11.10;99.90;;;;;;5016554;28;20337;-79
2023/11/14 04:54:19;;;;;;;37.30;7.78;;;11.00;99.90;;;;;;5003811;28;20053;-80
2023/11/14 04:56:45;;;;;;;38.95;8.13;;;11.00;99.90;;;;;;5009902;28;20045;-79
2023/11/14 04:59:10;;;;;;;32.38;7.38;;;11.00;99.90;;;;;;5011048;28;20504;-78
2023/11/14 05:01:36;;;;;;;32.20;7.20;;;11.00;99.90;;;;;;4985655;28;20049;-77
2023/11/14 05:04:02;;;;;;;35.50;7.65;;;11.00;99.90;;;;;;4984014;28;20041;-78
2023/11/14 05:06:32;;;;;;;35.97;7.68;;;11.00;99.90;;;;;;4974257;28;20397;-80
2023/11/14 05:08:58;;;;;;;35.65;7.35;;;11.00;99.90;;;;;;4990251;28;20095;-80
2023/11/14 05:11:24;;;;;;;33.10;7.43;;;11.00;99.90;;;;;;4993907;28;20042;-80
2023/11/14 05:13:49;;;;;;;44.53;8.55;;;11.10;99.90;;;;;;4992051;28;20458;-79
2023/11/14 05:16:16;;;;;;;36.60;7.25;;;11.10;99.90;;;;;;4985986;28;20042;-79
2023/11/14 05:18:43;;;;;;;30.10;6.45;;;11.10;99.90;;;;;;4989660;28;20500;-79
2023/11/14 05:21:09;;;;;;;35.60;7.63;;;11.10;99.90;;;;;;4999332;28;20037;-81
2023/11/14 05:23:35;;;;;;;29.73;7.13;;;11.10;99.90;;;;;;4996019;28;20099;-80
2023/11/14 05:26:02;;;;;;;36.28;7.72;;;11.10;99.90;;;;;;4988371;28;20049;-80
2023/11/14 05:28:28;;;;;;;35.45;7.90;;;11.10;99.90;;;;;;4991176;28;20045;-79
2023/11/14 05:30:53;;;;;;;33.38;7.38;;;11.10;99.90;;;;;;5006655;28;20052;-79
2023/11/14 05:33:19;;;;;;;39.50;7.93;;;11.10;99.90;;;;;;4993315;28;20045;-78
2023/11/14 05:35:45;;;;;;;38.65;8.90;;;11.10;99.90;;;;;;4992141;28;20053;-78
2023/11/14 05:38:11;;;;;;;36.17;7.90;;;11.10;99.90;;;;;;4990899;28;20047;-77
2023/11/14 05:40:36;;;;;;;30.90;7.40;;;11.20;99.90;;;;;;5004544;28;20052;-79
2023/11/14 05:43:02;;;;;;;37.65;7.68;;;11.20;99.90;;;;;;5008761;28;20064;-79
2023/11/14 05:45:28;;;;;;;35.78;8.07;;;11.20;99.90;;;;;;5008545;28;20166;-82
2023/11/14 05:47:54;;;;;;;32.25;7.47;;;11.20;99.90;;;;;;4984660;28;20045;-81
2023/11/14 05:50:20;;;;;;;32.75;7.65;;;11.20;99.90;;;;;;5007207;28;20056;-81
2023/11/14 05:52:46;;;;;;;35.03;8.18;;;11.20;99.90;;;;;;4995438;28;20037;-81
2023/11/14 05:55:12;;;;;;;30.70;7.40;;;11.20;99.90;;;;;;5006396;28;20053;-80
2023/11/14 05:57:40;;;;;;;33.70;7.72;;;11.20;99.90;;;;;;4991531;28;20049;-83
2023/11/14 06:00:07;;;;;;;32.53;7.55;;;11.20;99.90;;;;;;5012813;28;20128;-81
2023/11/14 06:02:33;;;;;;;32.65;7.70;;;11.20;99.90;;;;;;5010453;28;20048;-83
2023/11/14 06:04:59;;;;;;;34.83;7.80;;;11.20;99.90;;;;;;5006850;28;20045;-80
2023/11/14 06:07:24;;;;;;;32.15;7.43;;;11.20;99.90;;;;;;5007748;28;20577;-81
2023/11/14 06:09:50;;;;;;;30.95;7.28;;;11.20;99.90;;;;;;4990519;28;20053;-81
2023/11/14 06:12:16;;;;;;;34.72;8.05;;;11.20;99.90;;;;;;4996245;28;20371;-81
2023/11/14 06:14:42;;;;;;;33.33;7.85;;;11.20;99.90;;;;;;4991253;28;20063;-82
2023/11/14 06:17:08;;;;;;;31.65;6.97;;;11.20;99.90;;;;;;5006011;28;20057;-81
2023/11/14 06:19:36;;;;;;;40.83;8.27;;;11.20;99.90;;;;;;4992431;28;20040;-81
2023/11/14 06:22:02;;;;;;;28.45;7.18;;;11.20;99.90;;;;;;4991421;28;20044;-80
2023/11/14 06:24:28;;;;;;;30.15;7.38;;;11.20;99.90;;;;;;5010563;28;20080;-80
2023/11/14 06:26:53;;;;;;;33.50;7.53;;;11.30;99.90;;;;;;4997876;28;20088;-83
2023/11/14 06:29:19;;;;;;;31.80;7.38;;;11.30;99.90;;;;;;4994224;28;20111;-82
2023/11/14 06:31:45;;;;;;;37.92;8.38;;;11.30;99.90;;;;;;4990851;28;20052;-82
2023/11/14 06:34:12;;;;;;;35.63;7.68;;;11.30;99.90;;;;;;4991261;28;20049;-81
2023/11/14 06:36:38;;;;;;;33.70;7.40;;;11.30;99.90;;;;;;4986273;28;20484;-83
2023/11/14 06:39:05;;;;;;;32.10;7.68;;;11.30;99.90;;;;;;4987514;28;20042;-81
2023/11/14 06:41:31;;;;;;;38.85;8.07;;;11.30;99.90;;;;;;5011628;28;20106;-80
2023/11/14 06:43:56;;;;;;;30.35;6.85;;;11.30;99.90;;;;;;4990307;28;20484;-81
2023/11/14 06:46:22;;;;;;;39.50;8.25;;;11.30;99.90;;;;;;5007073;28;20472;-81
2023/11/14 06:48:48;;;;;;;38.22;8.20;;;11.30;99.90;;;;;;5009843;28;20037;-87
2023/11/14 06:51:14;;;;;;;32.78;8.05;;;11.30;99.90;;;;;;4990977;28;20567;-84
2023/11/14 06:53:39;;;;;;;39.97;8.15;;;11.30;99.90;;;;;;4996731;28;20091;-86
2023/11/14 06:56:06;;;;;;;32.47;8.27;;;11.30;99.90;;;;;;4989830;28;20451;-84
2023/11/14 06:58:34;;;;;;;35.55;8.25;;;11.30;99.90;;;;;;5011119;28;20034;-90
2023/11/14 07:01:00;;;;;;;33.97;7.38;;;11.40;99.90;;;;;;5005830;28;20144;-88
2023/11/14 07:03:25;;;;;;;36.00;7.90;;;11.30;99.90;;;;;;4991346;28;20050;-84
2023/11/14 07:05:51;;;;;;;32.97;7.70;;;11.40;99.90;;;;;;4989638;28;20056;-85
2023/11/14 07:08:17;;;;;;;32.72;8.02;;;11.40;99.90;;;;;;5006613;28;20045;-86
2023/11/14 07:10:43;;;;;;;37.72;8.25;;;11.30;99.90;;;;;;4996483;28;20042;-85
2023/11/14 07:13:09;;;;;;;30.92;6.53;;;11.30;99.90;;;;;;4987982;28;20400;-88
2023/11/14 07:15:35;;;;;;;31.67;7.80;;;11.40;99.90;;;;;;4988998;28;20557;-84
2023/11/14 07:18:02;;;;;;;36.75;7.65;;;11.40;99.90;;;;;;4996779;28;20048;-84
2023/11/14 07:20:28;;;;;;;36.15;7.53;;;11.40;99.90;;;;;;4989933;28;20116;-86
2023/11/14 07:22:54;;;;;;;28.85;7.22;;;11.40;99.90;;;;;;5007495;28;20045;-84
2023/11/14 07:25:19;;;;;;;27.88;6.68;;;11.40;99.90;;;;;;5009480;28;20060;-77
2023/11/14 07:27:47;;;;;;;27.85;7.70;;;11.40;99.90;;;;;;4989357;28;20053;-76
2023/11/14 07:30:18;;;;;;;27.90;6.68;;;11.40;99.90;;;;;;5006618;28;20060;-77
2023/11/14 07:32:45;;;;;;;33.08;7.13;;;11.40;99.90;;;;;;4985658;28;20555;-77
2023/11/14 07:35:11;;;;;;;32.92;7.57;;;11.40;99.90;;;;;;5003789;28;20045;-76
2023/11/14 07:37:37;;;;;;;28.58;7.57;;;11.40;99.90;;;;;;4987767;28;20459;-76
2023/11/14 07:40:06;;;;;;;31.70;7.28;;;11.40;99.90;;;;;;4988864;28;20041;-76
2023/11/14 07:42:32;;;;;;;31.80;8.23;;;11.40;99.90;;;;;;5011095;28;20079;-76
2023/11/14 07:44:58;;;;;;;28.85;7.05;;;11.40;99.90;;;;;;5007080;28;20128;-76
2023/11/14 07:47:24;;;;;;;34.95;8.00;;;11.40;99.90;;;;;;5012568;28;20062;-79
2023/11/14 07:49:50;;;;;;;28.08;6.97;;;11.50;99.90;;;;;;5003093;28;20053;-76
2023/11/14 07:52:16;;;;;;;28.95;7.40;;;11.50;99.90;;;;;;4992624;28;20492;-76
2023/11/14 07:54:42;;;;;;;32.95;7.05;;;11.50;99.90;;;;;;5010330;28;20126;-76
2023/11/14 07:57:08;;;;;;;35.65;7.93;;;11.50;99.90;;;;;;4996092;28;20345;-76
2023/11/14 07:59:36;;;;;;;34.60;7.00;;;11.50;99.90;;;;;;4995247;28;20050;-76
2023/11/14 08:02:02;;;;;;;32.83;7.55;;;11.50;99.90;;;;;;5017499;28;20454;-76
2023/11/14 08:04:27;;;;;;;40.50;7.70;;;11.50;99.90;;;;;;5005706;28;20050;-77
2023/11/14 08:06:53;;;;;;;31.23;7.22;;;11.50;99.90;;;;;;5011725;28;20369;-76
2023/11/14 08:09:20;;;;;;;31.10;7.40;;;11.50;99.90;;;;;;5001024;28;20084;-77
2023/11/14 08:11:46;;;;;;;27.95;7.13;;;11.50;99.90;;;;;;5010449;28;20037;-77
2023/11/14 08:14:12;;;;;;;30.42;7.20;;;11.50;99.90;;;;;;5008704;28;20057;-76
2023/11/14 08:16:38;;;;;;;32.67;7.43;;;11.50;99.90;;;;;;4990372;28;20038;-77
2023/11/14 08:19:04;;;;;;;31.35;7.30;;;11.50;99.90;;;;;;4989242;28;20046;-76
2023/11/14 08:21:29;;;;;;;29.48;6.97;;;11.50;99.90;;;;;;5006208;28;20125;-76
2023/11/14 08:23:55;;;;;;;32.22;7.53;;;11.60;99.90;;;;;;5004482;28;20042;-77
2023/11/14 08:26:25;;;;;;;30.85;7.63;;;11.60;99.90;;;;;;5008147;28;20451;-76
2023/11/14 08:28:50;;;;;;;38.47;7.93;;;11.60;99.90;;;;;;5006885;28;20124;-76
2023/11/14 08:31:16;;;;;;;33.65;8.35;;;11.60;99.90;;;;;;4992644;28;20131;-76
2023/11/14 08:33:43;;;;;;;38.55;8.88;;;11.70;99.90;;;;;;4989025;28;20073;-76
2023/11/14 08:36:09;;;;;;;37.30;8.88;;;11.70;99.90;;;;;;4994806;28;20049;-76
2023/11/14 08:38:37;;;;;;;35.92;8.30;;;11.70;99.90;;;;;;4985529;28;20077;-77
2023/11/14 08:41:03;;;;;;;35.63;7.65;;;11.70;99.90;;;;;;4992277;28;20045;-76
2023/11/14 08:43:29;;;;;;;35.47;8.70;;;11.70;99.90;;;;;;5005231;28;20042;-77
2023/11/14 08:45:55;;;;;;;36.90;8.35;;;11.70;99.90;;;;;;4988325;28;20069;-76
2023/11/14 08:48:21;;;;;;;36.75;8.18;;;11.70;99.90;;;;;;4987625;28;20496;-76
2023/11/14 08:50:49;;;;;;;32.97;8.13;;;11.70;99.90;;;;;;4998690;28;20072;-76
2023/11/14 08:53:16;;;;;;;29.95;7.05;;;11.70;99.90;;;;;;5006256;28;20087;-77
2023/11/14 08:55:42;;;;;;;32.40;7.95;;;11.60;99.90;;;;;;5005712;28;20041;-76
2023/11/14 08:58:08;;;;;;;41.42;8.43;;;11.70;99.90;;;;;;5007448;28;20052;-76
2023/11/14 09:00:35;;;;;;;34.97;7.85;;;11.70;99.90;;;;;;4994419;28;20487;-76
2023/11/14 09:03:01;;;;;;;35.97;7.72;;;11.70;99.90;;;;;;5005081;28;20116;-76
2023/11/14 09:05:27;;;;;;;32.35;7.35;;;11.70;99.90;;;;;;5010323;28;20041;-77
2023/11/14 09:07:53;;;;;;;29.45;7.32;;;11.70;99.90;;;;;;4993634;28;20073;-76
2023/11/14 09:10:19;;;;;;;32.42;6.88;;;11.80;99.90;;;;;;4991919;28;20071;-76
2023/11/14 09:12:45;;;;;;;30.05;6.38;;;11.80;99.90;;;;;;4998953;28;20064;-76
2023/11/14 09:15:13;;;;;;;32.15;7.00;;;11.90;99.90;;;;;;5006334;28;20046;-76
2023/11/14 09:17:40;;;;;;;33.83;7.68;;;11.90;99.90;;;;;;4994912;28;20124;-75
2023/11/14 09:20:06;;;;;;;36.17;7.65;;;11.90;99.90;;;;;;4987888;28;20026;-75
2023/11/14 09:22:33;;;;;;;36.55;7.72;;;11.90;99.90;;;;;;5009952;28;20501;-76
2023/11/14 09:24:59;;;;;;;36.78;7.82;;;11.90;99.90;;;;;;4989268;28;20053;-75
2023/11/14 09:27:28;;;;;;;26.38;7.50;;;11.90;99.90;;;;;;5007376;28;20455;-75
2023/11/14 09:29:54;;;;;;;33.53;8.85;;;12.00;99.90;;;;;;5009195;28;20041;-76
2023/11/14 09:32:21;;;;;;;29.77;7.28;;;12.00;99.90;;;;;;5003027;28;20455;-76
2023/11/14 09:34:47;;;;;;;39.20;8.93;;;12.10;99.90;;;;;;4988594;28;20041;-76
2023/11/14 09:37:13;;;;;;;32.58;7.85;;;12.20;99.90;;;;;;5000880;28;20050;-76
2023/11/14 09:39:39;;;;;;;36.20;7.38;;;12.20;99.90;;;;;;5007858;28;20040;-76
2023/11/14 09:42:05;;;;;;;34.55;7.15;;;12.20;99.90;;;;;;4991019;28;20058;-76
2023/11/14 09:44:31;;;;;;;29.00;6.97;;;12.20;99.90;;;;;;5010321;28;20416;-76
2023/11/14 09:46:59;;;;;;;36.53;7.40;;;12.20;99.90;;;;;;4990998;28;20045;-76
2023/11/14 09:49:28;;;;;;;32.78;7.72;;;12.30;99.90;;;;;;5003186;28;20094;-74
2023/11/14 09:51:54;;;;;;;29.15;6.88;;;12.20;99.90;;;;;;5005216;28;20038;-76
2023/11/14 09:54:24;;;;;;;33.42;8.27;;;12.20;99.90;;;;;;5011531;28;20514;-75
2023/11/14 09:56:54;;;;;;;;;;;12.30;99.90;;;;;;4995595;28;20042;-76
2023/11/14 09:59:21;;;;;;;35.22;7.63;;;12.20;99.90;;;;;;4996506;28;19956;-76
2023/11/14 10:01:48;;;;;;;30.63;7.25;;;12.30;99.90;;;;;;4995898;28;20064;-76
2023/11/14 10:04:14;;;;;;;31.98;7.97;;;12.30;99.90;;;;;;5025059;28;20132;-75
2023/11/14 10:06:43;;;;;;;31.58;6.78;;;12.40;99.90;;;;;;5007639;28;20112;-75
2023/11/14 10:09:14;;;;;;;28.75;7.18;;;12.30;99.90;;;;;;5008594;28;20030;-75
2023/11/14 10:11:48;;;;;;;34.25;8.13;;;12.30;99.90;;;;;;4988214;28;20067;-76
2023/11/14 10:14:19;;;;;;;30.73;6.95;;;12.30;99.90;;;;;;5013283;28;20041;-75
2023/11/14 10:16:55;;;;;;;26.63;7.57;;;12.40;99.90;;;;;;5014069;28;20056;-76
2023/11/14 10:19:21;;;;;;;31.73;7.18;;;12.40;99.90;;;;;;5005671;28;20103;-80
2023/11/14 10:21:47;;;;;;;31.23;7.05;;;12.50;99.90;;;;;;5011413;28;20045;-80
2023/11/14 10:24:17;;;;;;;33.15;7.35;;;12.50;99.90;;;;;;5007859;28;20049;-79
2023/11/14 10:26:50;;;;;;;;;;;12.50;99.90;;;;;;5025164;28;20068;-79
2023/11/14 10:29:18;;;;;;;28.60;6.47;;;12.50;99.90;;;;;;5011624;28;19932;-80
2023/11/14 10:31:44;;;;;;;27.13;6.60;;;12.60;99.90;;;;;;4992848;28;20289;-79
2023/11/14 10:34:28;;;;;;;26.83;7.35;;;12.60;99.90;;;;;;5010868;28;20057;-80
2023/11/14 10:36:56;;;;;;;24.48;6.68;;;12.60;99.90;;;;;;5002218;28;20045;-79
2023/11/14 10:39:26;;;;;;;31.75;7.68;;;12.70;99.90;;;;;;5003886;28;20037;-81
2023/11/14 10:41:52;;;;;;;26.02;6.70;;;12.70;99.90;;;;;;4991682;28;20535;-76
2023/11/14 10:44:19;;;;;;;26.83;6.70;;;12.70;99.90;;;;;;5007792;28;20052;-76
2023/11/14 10:46:52;;;;;;;34.13;6.45;;;12.60;99.90;;;;;;5017967;28;20041;-75
2023/11/14 10:49:19;;;;;;;27.25;6.50;;;12.60;99.90;;;;;;5004762;28;20393;-75
2023/11/14 10:51:48;;;;;;;30.08;6.70;;;12.50;99.90;;;;;;4990154;28;20049;-76
2023/11/14 10:54:17;;;;;;;28.67;6.80;;;12.40;99.90;;;;;;4987742;28;20149;-75
2023/11/14 10:56:44;;;;;;;31.05;7.55;;;12.30;99.90;;;;;;5011177;28;20122;-76
2023/11/14 10:59:13;;;;;;;27.02;5.68;;;12.30;99.90;;;;;;5004605;28;20046;-76
2023/11/14 11:01:46;;;;;;;26.35;6.55;;;12.30;99.90;;;;;;5003756;28;20038;-76
2023/11/14 11:04:17;;;;;;;34.78;7.47;;;12.30;99.90;;;;;;4992079;28;20053;-76
2023/11/14 11:06:47;;;;;;;32.85;7.07;;;12.30;99.90;;;;;;5005995;28;20111;-76
2023/11/14 11:09:15;;;;;;;24.70;6.45;;;12.30;99.90;;;;;;5010315;28;20128;-75
2023/11/14 11:11:45;;;;;;;29.15;7.35;;;12.30;99.90;;;;;;4998821;28;20247;-75
2023/11/14 11:14:14;;;;;;;26.63;6.50;;;12.30;99.90;;;;;;4985496;28;20049;-75
2023/11/14 11:16:43;;;;;;;31.13;7.27;;;12.30;99.90;;;;;;5006581;28;20697;-76
2023/11/14 11:19:12;;;;;;;30.42;7.38;;;12.40;99.90;;;;;;5007215;28;20535;-76
2023/11/14 11:21:38;;;;;;;32.70;7.53;;;12.30;99.90;;;;;;5005775;28;20361;-75
2023/11/14 11:24:12;;;;;;;31.40;7.80;;;12.30;99.90;;;;;;5008171;28;20076;-75
2023/11/14 11:27:09;;;;;;;34.60;7.63;;;12.30;99.90;;;;;;4988759;28;20512;-76
2023/11/14 11:30:04;;;;;;;28.15;6.75;;;12.30;99.90;;;;;;5003644;28;20041;-76
2023/11/14 11:32:35;;;;;;;34.67;7.07;;;12.30;99.90;;;;;;4983660;28;20049;-76
2023/11/14 11:35:19;;;;;;;34.88;6.75;;;12.30;99.90;;;;;;4992006;28;20042;-77
2023/11/14 11:37:49;;;;;;;27.52;6.43;;;12.30;99.90;;;;;;4996074;28;20132;-76
2023/11/14 11:40:21;;;;;;;34.65;7.60;;;12.30;99.90;;;;;;5004854;28;20050;-76
2023/11/14 11:42:48;;;;;;;32.53;6.85;;;12.30;99.90;;;;;;4990723;28;20381;-76
2023/11/14 11:45:35;;;;;;;32.13;8.13;;;12.30;99.90;;;;;;5002267;28;20059;-76
2023/11/14 11:48:02;;;;;;;25.65;6.30;;;12.30;99.90;;;;;;4990210;28;20046;-76
2023/11/14 11:50:33;;;;;;;26.20;6.38;;;12.30;99.90;;;;;;5010781;28;20045;-76
2023/11/14 11:53:07;;;;;;;40.90;7.85;;;12.40;99.90;;;;;;5014329;28;20052;-76
2023/11/14 11:55:36;;;;;;;31.98;7.20;;;12.50;99.90;;;;;;5004818;28;20049;-76
2023/11/14 11:58:03;;;;;;;28.83;7.20;;;12.50;99.90;;;;;;5003104;28;20512;-75
2023/11/14 12:00:31;;;;;;;35.97;7.20;;;12.40;99.90;;;;;;5005772;28;20052;-75
2023/11/14 12:03:02;;;;;;;35.47;7.45;;;12.30;99.90;;;;;;4991644;28;20057;-75
2023/11/14 12:05:29;;;;;;;43.53;8.15;;;12.30;99.90;;;;;;4994014;28;20052;-75
2023/11/14 12:07:56;;;;;;;38.95;7.20;;;12.20;99.90;;;;;;5005376;28;20033;-76
2023/11/14 12:10:24;;;;;;;40.13;8.05;;;12.20;99.90;;;;;;4990999;28;20066;-76
2023/11/14 12:12:57;;;;;;;25.38;6.53;;;12.20;99.90;;;;;;5004262;28;20511;-77
2023/11/14 12:15:28;;;;;;;43.25;7.93;;;12.20;99.90;;;;;;5010180;28;20068;-78
2023/11/14 12:17:57;;;;;;;31.20;6.05;;;12.10;99.90;;;;;;5005857;28;20116;-77
2023/11/14 12:20:24;;;;;;;28.98;5.93;;;12.10;99.90;;;;;;5000297;28;20053;-77
2023/11/14 12:22:52;;;;;;;34.70;6.47;;;12.00;99.90;;;;;;5005618;28;20117;-76
2023/11/14 12:25:19;;;;;;;41.83;7.55;;;12.00;99.90;;;;;;5005497;28;20182;-77
2023/11/14 12:28:03;;;;;;;45.28;8.30;;;12.00;99.90;;;;;;5003459;28;20051;-77
2023/11/14 12:30:30;;;;;;;37.80;7.30;;;12.00;99.90;;;;;;5001136;28;20192;-76
2023/11/14 12:33:13;;;;;;;39.35;8.07;;;12.10;99.90;;;;;;4993692;28;20033;-77
2023/11/14 12:35:45;;;;;;;38.25;8.20;;;12.20;99.90;;;;;;5005867;28;20389;-77
2023/11/14 12:38:11;;;;;;;45.20;8.63;;;12.20;99.90;;;;;;5019197;28;20044;-76